sensor_id;sensor_type;location;lat;lon;timestamp;P1;durP1;ratioP1;P2;durP2;ratioP2
7997;SDS011;4044;49.814;7.828;2022-09-27T00:00:13;4.30;;;1.80;;
7997;SDS011;4044;49.814;7.828;2022-09-27T00:02:39;1.80;;;1.70;;
7997;SDS011;4044;49.814;7.828;2022-09-27T00:05:04;4.23;;;2.40;;
7997;SDS011;4044;49.814;7.828;2022-09-27T00:07:30;3.20;;;1.80;;
7997;SDS011;4044;49.814;7.828;2022-09-27T00:09:56;2.20;;;2.00;;
7997;SDS011;4044;49.814;7.828;2022-09-27T00:12:21;2.10;;;1.70;;
7997;SDS011;4044;49.814;7.828;2022-09-27T00:14:47;2.50;;;1.60;;
7997;SDS011;4044;49.814;7.828;2022-09-27T00:17:13;1.80;;;1.70;;
7997;SDS011;4044;49.814;7.828;2022-09-27T00:19:38;2.20;;;2.00;;
7997;SDS011;4044;49.814;7.828;2022-09-27T00:22:04;3.33;;;2.20;;
7997;SDS011;4044;49.814;7.828;2022-09-27T00:24:29;2.03;;;1.83;;
7997;SDS011;4044;49.814;7.828;2022-09-27T00:26:55;6.30;;;1.93;;
7997;SDS011;4044;49.814;7.828;2022-09-27T00:29:21;5.30;;;2.27;;
7997;SDS011;4044;49.814;7.828;2022-09-27T00:31:46;5.37;;;2.40;;
7997;SDS011;4044;49.814;7.828;2022-09-27T00:34:15;3.80;;;2.30;;
7997;SDS011;4044;49.814;7.828;2022-09-27T00:36:46;3.97;;;2.47;;
7997;SDS011;4044;49.814;7.828;2022-09-27T00:39:12;2.80;;;2.37;;
7997;SDS011;4044;49.814;7.828;2022-09-27T00:41:38;4.37;;;2.43;;
7997;SDS011;4044;49.814;7.828;2022-09-27T00:44:54;5.10;;;3.00;;
7997;SDS011;4044;49.814;7.828;2022-09-27T00:50:00;8.27;;;3.00;;
7997;SDS011;4044;49.814;7.828;2022-09-27T00:52:54;8.20;;;3.00;;
7997;SDS011;4044;49.814;7.828;2022-09-27T00:55:34;5.57;;;2.73;;
7997;SDS011;4044;49.814;7.828;2022-09-27T00:58:03;7.27;;;3.33;;
7997;SDS011;4044;49.814;7.828;2022-09-27T01:00:30;3.47;;;2.53;;
7997;SDS011;4044;49.814;7.828;2022-09-27T01:02:56;6.03;;;3.00;;
7997;SDS011;4044;49.814;7.828;2022-09-27T01:05:22;9.00;;;3.63;;
7997;SDS011;4044;49.814;7.828;2022-09-27T01:07:51;5.57;;;2.90;;
7997;SDS011;4044;49.814;7.828;2022-09-27T01:10:20;8.20;;;3.13;;
7997;SDS011;4044;49.814;7.828;2022-09-27T01:13:06;5.87;;;2.70;;
7997;SDS011;4044;49.814;7.828;2022-09-27T01:15:45;4.90;;;2.93;;
7997;SDS011;4044;49.814;7.828;2022-09-27T01:18:40;6.23;;;2.70;;
7997;SDS011;4044;49.814;7.828;2022-09-27T01:21:26;6.73;;;2.93;;
7997;SDS011;4044;49.814;7.828;2022-09-27T01:24:05;5.27;;;2.63;;
7997;SDS011;4044;49.814;7.828;2022-09-27T01:32:33;4.03;;;2.60;;
7997;SDS011;4044;49.814;7.828;2022-09-27T01:35:13;8.00;;;3.73;;
7997;SDS011;4044;49.814;7.828;2022-09-27T01:42:59;5.27;;;3.37;;
7997;SDS011;4044;49.814;7.828;2022-09-27T01:45:35;6.57;;;3.13;;
7997;SDS011;4044;49.814;7.828;2022-09-27T01:48:22;5.53;;;2.70;;
7997;SDS011;4044;49.814;7.828;2022-09-27T01:50:52;4.40;;;2.80;;
7997;SDS011;4044;49.814;7.828;2022-09-27T01:53:41;6.13;;;2.80;;
7997;SDS011;4044;49.814;7.828;2022-09-27T01:56:15;5.03;;;2.70;;
7997;SDS011;4044;49.814;7.828;2022-09-27T01:58:45;4.50;;;2.80;;
7997;SDS011;4044;49.814;7.828;2022-09-27T02:01:20;4.73;;;2.80;;
7997;SDS011;4044;49.814;7.828;2022-09-27T02:03:49;4.53;;;2.43;;
7997;SDS011;4044;49.814;7.828;2022-09-27T02:06:21;4.20;;;2.60;;
7997;SDS011;4044;49.814;7.828;2022-09-27T02:08:54;4.80;;;2.13;;
7997;SDS011;4044;49.814;7.828;2022-09-27T02:11:27;3.10;;;1.97;;
7997;SDS011;4044;49.814;7.828;2022-09-27T02:13:54;3.17;;;2.03;;
7997;SDS011;4044;49.814;7.828;2022-09-27T02:16:28;3.50;;;2.30;;
7997;SDS011;4044;49.814;7.828;2022-09-27T02:19:17;4.80;;;2.30;;
7997;SDS011;4044;49.814;7.828;2022-09-27T02:24:57;4.27;;;2.50;;
7997;SDS011;4044;49.814;7.828;2022-09-27T02:27:35;4.53;;;1.97;;
7997;SDS011;4044;49.814;7.828;2022-09-27T02:30:13;2.37;;;2.00;;
7997;SDS011;4044;49.814;7.828;2022-09-27T02:32:40;3.77;;;2.20;;
7997;SDS011;4044;49.814;7.828;2022-09-27T02:35:08;1.70;;;1.60;;
7997;SDS011;4044;49.814;7.828;2022-09-27T02:37:48;2.43;;;1.80;;
7997;SDS011;4044;49.814;7.828;2022-09-27T02:40:15;3.17;;;1.93;;
7997;SDS011;4044;49.814;7.828;2022-09-27T02:42:41;3.93;;;2.03;;
7997;SDS011;4044;49.814;7.828;2022-09-27T02:45:08;3.70;;;1.80;;
7997;SDS011;4044;49.814;7.828;2022-09-27T02:50:12;2.67;;;1.77;;
7997;SDS011;4044;49.814;7.828;2022-09-27T02:53:01;2.70;;;1.63;;
7997;SDS011;4044;49.814;7.828;2022-09-27T02:55:42;1.60;;;1.50;;
7997;SDS011;4044;49.814;7.828;2022-09-27T03:01:31;1.70;;;1.50;;
7997;SDS011;4044;49.814;7.828;2022-09-27T03:04:06;1.97;;;1.47;;
7997;SDS011;4044;49.814;7.828;2022-09-27T03:06:54;2.53;;;1.43;;
7997;SDS011;4044;49.814;7.828;2022-09-27T03:09:23;2.27;;;1.30;;
7997;SDS011;4044;49.814;7.828;2022-09-27T03:11:53;1.40;;;1.40;;
7997;SDS011;4044;49.814;7.828;2022-09-27T03:14:18;2.07;;;1.30;;
7997;SDS011;4044;49.814;7.828;2022-09-27T03:16:44;1.47;;;1.20;;
7997;SDS011;4044;49.814;7.828;2022-09-27T03:19:10;2.40;;;1.50;;
7997;SDS011;4044;49.814;7.828;2022-09-27T03:21:35;1.10;;;1.10;;
7997;SDS011;4044;49.814;7.828;2022-09-27T03:24:01;2.37;;;1.30;;
7997;SDS011;4044;49.814;7.828;2022-09-27T03:26:27;2.60;;;1.20;;
7997;SDS011;4044;49.814;7.828;2022-09-27T03:28:53;1.40;;;1.17;;
7997;SDS011;4044;49.814;7.828;2022-09-27T03:31:18;1.63;;;1.43;;
7997;SDS011;4044;49.814;7.828;2022-09-27T03:33:45;1.10;;;1.00;;
7997;SDS011;4044;49.814;7.828;2022-09-27T03:36:11;1.33;;;1.00;;
7997;SDS011;4044;49.814;7.828;2022-09-27T03:38:37;1.67;;;1.10;;
7997;SDS011;4044;49.814;7.828;2022-09-27T03:41:03;1.40;;;1.30;;
7997;SDS011;4044;49.814;7.828;2022-09-27T03:43:28;1.13;;;1.13;;
7997;SDS011;4044;49.814;7.828;2022-09-27T03:45:54;1.10;;;1.10;;
7997;SDS011;4044;49.814;7.828;2022-09-27T03:48:20;1.10;;;1.00;;
7997;SDS011;4044;49.814;7.828;2022-09-27T03:50:45;1.43;;;1.10;;
7997;SDS011;4044;49.814;7.828;2022-09-27T03:53:11;1.50;;;1.30;;
7997;SDS011;4044;49.814;7.828;2022-09-27T03:55:36;1.83;;;1.33;;
7997;SDS011;4044;49.814;7.828;2022-09-27T03:58:02;2.80;;;1.37;;
7997;SDS011;4044;49.814;7.828;2022-09-27T04:00:27;2.83;;;1.40;;
7997;SDS011;4044;49.814;7.828;2022-09-27T04:02:54;3.00;;;1.37;;
7997;SDS011;4044;49.814;7.828;2022-09-27T04:05:19;1.70;;;1.10;;
7997;SDS011;4044;49.814;7.828;2022-09-27T04:07:48;1.10;;;1.00;;
7997;SDS011;4044;49.814;7.828;2022-09-27T04:10:14;1.40;;;1.10;;
7997;SDS011;4044;49.814;7.828;2022-09-27T04:12:40;1.63;;;1.17;;
7997;SDS011;4044;49.814;7.828;2022-09-27T04:15:06;1.30;;;1.30;;
7997;SDS011;4044;49.814;7.828;2022-09-27T04:17:33;1.10;;;1.10;;
7997;SDS011;4044;49.814;7.828;2022-09-27T04:19:59;1.47;;;1.30;;
7997;SDS011;4044;49.814;7.828;2022-09-27T04:22:27;2.47;;;1.20;;
7997;SDS011;4044;49.814;7.828;2022-09-27T04:24:53;2.97;;;1.40;;
7997;SDS011;4044;49.814;7.828;2022-09-27T04:27:19;1.53;;;1.40;;
7997;SDS011;4044;49.814;7.828;2022-09-27T04:29:46;1.70;;;1.30;;
7997;SDS011;4044;49.814;7.828;2022-09-27T04:32:12;1.70;;;1.20;;
7997;SDS011;4044;49.814;7.828;2022-09-27T04:34:38;2.30;;;1.20;;
7997;SDS011;4044;49.814;7.828;2022-09-27T04:37:22;2.17;;;1.30;;
7997;SDS011;4044;49.814;7.828;2022-09-27T04:39:48;2.07;;;1.53;;
7997;SDS011;4044;49.814;7.828;2022-09-27T04:42:14;1.80;;;1.50;;
7997;SDS011;4044;49.814;7.828;2022-09-27T04:44:39;1.80;;;1.40;;
7997;SDS011;4044;49.814;7.828;2022-09-27T04:47:05;1.93;;;1.40;;
7997;SDS011;4044;49.814;7.828;2022-09-27T04:49:30;1.20;;;1.20;;
7997;SDS011;4044;49.814;7.828;2022-09-27T04:51:56;1.30;;;1.20;;
7997;SDS011;4044;49.814;7.828;2022-09-27T04:54:22;1.20;;;1.20;;
7997;SDS011;4044;49.814;7.828;2022-09-27T04:56:47;0.90;;;0.90;;
7997;SDS011;4044;49.814;7.828;2022-09-27T04:59:13;2.23;;;1.20;;
7997;SDS011;4044;49.814;7.828;2022-09-27T05:01:39;1.47;;;1.17;;
7997;SDS011;4044;49.814;7.828;2022-09-27T05:04:05;1.30;;;1.20;;
7997;SDS011;4044;49.814;7.828;2022-09-27T05:06:30;1.60;;;1.30;;
7997;SDS011;4044;49.814;7.828;2022-09-27T05:08:56;1.20;;;1.20;;
7997;SDS011;4044;49.814;7.828;2022-09-27T05:11:22;2.03;;;1.20;;
7997;SDS011;4044;49.814;7.828;2022-09-27T05:13:48;3.30;;;1.10;;
7997;SDS011;4044;49.814;7.828;2022-09-27T05:16:14;2.63;;;1.30;;
7997;SDS011;4044;49.814;7.828;2022-09-27T05:18:39;1.10;;;1.03;;
7997;SDS011;4044;49.814;7.828;2022-09-27T05:21:05;2.03;;;1.10;;
7997;SDS011;4044;49.814;7.828;2022-09-27T05:23:31;1.70;;;1.00;;
7997;SDS011;4044;49.814;7.828;2022-09-27T05:25:56;1.00;;;1.00;;
7997;SDS011;4044;49.814;7.828;2022-09-27T05:28:22;1.80;;;0.90;;
7997;SDS011;4044;49.814;7.828;2022-09-27T05:30:48;1.30;;;1.10;;
7997;SDS011;4044;49.814;7.828;2022-09-27T05:33:14;1.00;;;1.00;;
7997;SDS011;4044;49.814;7.828;2022-09-27T05:35:39;0.80;;;0.80;;
7997;SDS011;4044;49.814;7.828;2022-09-27T05:38:06;1.23;;;0.93;;
7997;SDS011;4044;49.814;7.828;2022-09-27T05:40:32;1.80;;;1.00;;
7997;SDS011;4044;49.814;7.828;2022-09-27T05:42:58;1.83;;;1.03;;
7997;SDS011;4044;49.814;7.828;2022-09-27T05:45:24;0.97;;;0.97;;
7997;SDS011;4044;49.814;7.828;2022-09-27T05:47:53;1.00;;;1.00;;
7997;SDS011;4044;49.814;7.828;2022-09-27T05:50:20;1.10;;;0.90;;
7997;SDS011;4044;49.814;7.828;2022-09-27T05:52:46;1.37;;;1.27;;
7997;SDS011;4044;49.814;7.828;2022-09-27T05:55:13;1.20;;;1.10;;
7997;SDS011;4044;49.814;7.828;2022-09-27T05:57:38;0.80;;;0.80;;
7997;SDS011;4044;49.814;7.828;2022-09-27T06:00:04;1.37;;;1.27;;
7997;SDS011;4044;49.814;7.828;2022-09-27T06:02:30;1.97;;;1.20;;
7997;SDS011;4044;49.814;7.828;2022-09-27T06:04:56;1.27;;;1.17;;
7997;SDS011;4044;49.814;7.828;2022-09-27T06:07:21;1.20;;;1.10;;
7997;SDS011;4044;49.814;7.828;2022-09-27T06:09:47;1.77;;;1.10;;
7997;SDS011;4044;49.814;7.828;2022-09-27T06:12:12;1.07;;;1.00;;
7997;SDS011;4044;49.814;7.828;2022-09-27T06:14:38;1.97;;;1.00;;
7997;SDS011;4044;49.814;7.828;2022-09-27T06:17:04;0.87;;;0.87;;
7997;SDS011;4044;49.814;7.828;2022-09-27T06:19:30;0.73;;;0.73;;
7997;SDS011;4044;49.814;7.828;2022-09-27T06:21:55;0.90;;;0.90;;
7997;SDS011;4044;49.814;7.828;2022-09-27T06:24:21;0.77;;;0.70;;
7997;SDS011;4044;49.814;7.828;2022-09-27T06:26:46;1.17;;;0.80;;
7997;SDS011;4044;49.814;7.828;2022-09-27T06:29:12;1.00;;;0.60;;
7997;SDS011;4044;49.814;7.828;2022-09-27T06:31:37;0.60;;;0.60;;
7997;SDS011;4044;49.814;7.828;2022-09-27T06:34:03;1.40;;;0.60;;
7997;SDS011;4044;49.814;7.828;2022-09-27T06:36:29;0.73;;;0.73;;
7997;SDS011;4044;49.814;7.828;2022-09-27T06:38:54;0.90;;;0.70;;
7997;SDS011;4044;49.814;7.828;2022-09-27T06:41:19;0.70;;;0.70;;
7997;SDS011;4044;49.814;7.828;2022-09-27T06:43:47;0.90;;;0.90;;
7997;SDS011;4044;49.814;7.828;2022-09-27T06:46:13;0.70;;;0.57;;
7997;SDS011;4044;49.814;7.828;2022-09-27T06:48:38;0.73;;;0.73;;
7997;SDS011;4044;49.814;7.828;2022-09-27T06:51:04;2.20;;;0.90;;
7997;SDS011;4044;49.814;7.828;2022-09-27T06:53:30;0.50;;;0.50;;
7997;SDS011;4044;49.814;7.828;2022-09-27T06:55:56;0.93;;;0.67;;
7997;SDS011;4044;49.814;7.828;2022-09-27T06:58:24;0.70;;;0.70;;
7997;SDS011;4044;49.814;7.828;2022-09-27T07:01:08;0.67;;;0.50;;
7997;SDS011;4044;49.814;7.828;2022-09-27T07:03:34;1.07;;;0.97;;
7997;SDS011;4044;49.814;7.828;2022-09-27T07:06:04;0.50;;;0.50;;
7997;SDS011;4044;49.814;7.828;2022-09-27T07:08:30;1.90;;;0.60;;
7997;SDS011;4044;49.814;7.828;2022-09-27T07:11:00;0.67;;;0.67;;
7997;SDS011;4044;49.814;7.828;2022-09-27T07:13:29;0.90;;;0.70;;
7997;SDS011;4044;49.814;7.828;2022-09-27T07:15:56;1.10;;;0.80;;
7997;SDS011;4044;49.814;7.828;2022-09-27T07:18:22;2.07;;;0.80;;
7997;SDS011;4044;49.814;7.828;2022-09-27T07:20:48;0.53;;;0.53;;
7997;SDS011;4044;49.814;7.828;2022-09-27T07:23:14;2.20;;;0.70;;
7997;SDS011;4044;49.814;7.828;2022-09-27T07:25:40;0.97;;;0.70;;
7997;SDS011;4044;49.814;7.828;2022-09-27T07:28:07;0.70;;;0.70;;
7997;SDS011;4044;49.814;7.828;2022-09-27T07:30:37;1.00;;;0.57;;
7997;SDS011;4044;49.814;7.828;2022-09-27T07:33:04;0.70;;;0.70;;
7997;SDS011;4044;49.814;7.828;2022-09-27T07:35:30;0.57;;;0.57;;
7997;SDS011;4044;49.814;7.828;2022-09-27T07:37:56;1.37;;;0.70;;
7997;SDS011;4044;49.814;7.828;2022-09-27T07:40:23;0.77;;;0.70;;
7997;SDS011;4044;49.814;7.828;2022-09-27T07:42:56;0.93;;;0.77;;
7997;SDS011;4044;49.814;7.828;2022-09-27T07:45:23;0.67;;;0.50;;
7997;SDS011;4044;49.814;7.828;2022-09-27T07:47:51;0.67;;;0.50;;
7997;SDS011;4044;49.814;7.828;2022-09-27T07:50:17;2.10;;;0.60;;
7997;SDS011;4044;49.814;7.828;2022-09-27T07:52:43;1.67;;;0.60;;
7997;SDS011;4044;49.814;7.828;2022-09-27T07:55:11;0.50;;;0.50;;
7997;SDS011;4044;49.814;7.828;2022-09-27T07:57:38;2.10;;;0.70;;
7997;SDS011;4044;49.814;7.828;2022-09-27T08:00:06;0.67;;;0.43;;
7997;SDS011;4044;49.814;7.828;2022-09-27T08:02:33;0.40;;;0.40;;
7997;SDS011;4044;49.814;7.828;2022-09-27T08:04:59;0.67;;;0.43;;
7997;SDS011;4044;49.814;7.828;2022-09-27T08:07:25;1.23;;;0.37;;
7997;SDS011;4044;49.814;7.828;2022-09-27T08:09:52;1.03;;;0.43;;
7997;SDS011;4044;49.814;7.828;2022-09-27T08:12:17;0.50;;;0.50;;
7997;SDS011;4044;49.814;7.828;2022-09-27T08:14:45;0.47;;;0.47;;
7997;SDS011;4044;49.814;7.828;2022-09-27T08:17:11;0.50;;;0.43;;
7997;SDS011;4044;49.814;7.828;2022-09-27T08:19:37;0.80;;;0.63;;
7997;SDS011;4044;49.814;7.828;2022-09-27T08:22:04;1.20;;;0.73;;
7997;SDS011;4044;49.814;7.828;2022-09-27T08:24:30;1.37;;;0.73;;
7997;SDS011;4044;49.814;7.828;2022-09-27T08:26:56;0.60;;;0.60;;
7997;SDS011;4044;49.814;7.828;2022-09-27T08:29:22;0.50;;;0.50;;
7997;SDS011;4044;49.814;7.828;2022-09-27T08:31:49;0.37;;;0.30;;
7997;SDS011;4044;49.814;7.828;2022-09-27T08:34:15;0.73;;;0.60;;
7997;SDS011;4044;49.814;7.828;2022-09-27T08:36:42;0.70;;;0.70;;
7997;SDS011;4044;49.814;7.828;2022-09-27T08:39:07;0.60;;;0.60;;
7997;SDS011;4044;49.814;7.828;2022-09-27T08:44:42;1.07;;;0.40;;
7997;SDS011;4044;49.814;7.828;2022-09-27T08:47:31;0.37;;;0.33;;
7997;SDS011;4044;49.814;7.828;2022-09-27T08:53:03;0.30;;;0.30;;
7997;SDS011;4044;49.814;7.828;2022-09-27T08:55:52;2.20;;;0.53;;
7997;SDS011;4044;49.814;7.828;2022-09-27T08:58:27;0.20;;;0.20;;
7997;SDS011;4044;49.814;7.828;2022-09-27T09:00:58;1.07;;;0.40;;
7997;SDS011;4044;49.814;7.828;2022-09-27T09:03:27;0.57;;;0.30;;
7997;SDS011;4044;49.814;7.828;2022-09-27T09:08:58;0.47;;;0.40;;
7997;SDS011;4044;49.814;7.828;2022-09-27T09:29:15;0.80;;;0.60;;
7997;SDS011;4044;49.814;7.828;2022-09-27T09:35:01;0.63;;;0.57;;
7997;SDS011;4044;49.814;7.828;2022-09-27T09:37:41;0.77;;;0.77;;
7997;SDS011;4044;49.814;7.828;2022-09-27T09:40:23;1.80;;;0.80;;
7997;SDS011;4044;49.814;7.828;2022-09-27T09:43:10;1.37;;;0.50;;
7997;SDS011;4044;49.814;7.828;2022-09-27T09:45:45;1.80;;;1.00;;
7997;SDS011;4044;49.814;7.828;2022-09-27T09:51:23;1.87;;;0.90;;
7997;SDS011;4044;49.814;7.828;2022-09-27T09:53:56;0.90;;;0.90;;
7997;SDS011;4044;49.814;7.828;2022-09-27T09:56:30;1.07;;;0.80;;
7997;SDS011;4044;49.814;7.828;2022-09-27T09:59:00;0.93;;;0.80;;
7997;SDS011;4044;49.814;7.828;2022-09-27T10:01:36;1.77;;;1.17;;
7997;SDS011;4044;49.814;7.828;2022-09-27T10:04:22;1.30;;;0.90;;
7997;SDS011;4044;49.814;7.828;2022-09-27T10:06:50;0.93;;;0.80;;
7997;SDS011;4044;49.814;7.828;2022-09-27T10:09:19;2.60;;;0.90;;
7997;SDS011;4044;49.814;7.828;2022-09-27T10:11:48;0.90;;;0.90;;
7997;SDS011;4044;49.814;7.828;2022-09-27T10:14:15;0.60;;;0.60;;
7997;SDS011;4044;49.814;7.828;2022-09-27T10:16:45;0.77;;;0.60;;
7997;SDS011;4044;49.814;7.828;2022-09-27T10:19:20;1.97;;;0.90;;
7997;SDS011;4044;49.814;7.828;2022-09-27T10:21:50;0.97;;;0.90;;
7997;SDS011;4044;49.814;7.828;2022-09-27T10:24:17;1.27;;;0.90;;
7997;SDS011;4044;49.814;7.828;2022-09-27T10:26:46;1.73;;;1.10;;
7997;SDS011;4044;49.814;7.828;2022-09-27T10:31:43;1.37;;;0.93;;
7997;SDS011;4044;49.814;7.828;2022-09-27T10:39:37;2.73;;;1.30;;
7997;SDS011;4044;49.814;7.828;2022-09-27T10:44:49;2.33;;;1.30;;
7997;SDS011;4044;49.814;7.828;2022-09-27T10:47:19;1.30;;;1.20;;
7997;SDS011;4044;49.814;7.828;2022-09-27T10:49:47;1.33;;;1.20;;
7997;SDS011;4044;49.814;7.828;2022-09-27T10:52:17;1.30;;;1.10;;
7997;SDS011;4044;49.814;7.828;2022-09-27T10:54:54;1.40;;;1.30;;
7997;SDS011;4044;49.814;7.828;2022-09-27T10:57:23;1.47;;;1.10;;
7997;SDS011;4044;49.814;7.828;2022-09-27T10:59:52;3.10;;;1.20;;
7997;SDS011;4044;49.814;7.828;2022-09-27T11:02:31;2.60;;;1.10;;
7997;SDS011;4044;49.814;7.828;2022-09-27T11:07:49;3.97;;;1.37;;
7997;SDS011;4044;49.814;7.828;2022-09-27T11:10:27;1.37;;;1.03;;
7997;SDS011;4044;49.814;7.828;2022-09-27T11:13:15;2.43;;;1.00;;
7997;SDS011;4044;49.814;7.828;2022-09-27T11:15:52;1.13;;;1.03;;
7997;SDS011;4044;49.814;7.828;2022-09-27T11:27:04;1.07;;;0.90;;
7997;SDS011;4044;49.814;7.828;2022-09-27T11:32:54;1.33;;;0.93;;
7997;SDS011;4044;49.814;7.828;2022-09-27T11:38:08;1.63;;;1.40;;
7997;SDS011;4044;49.814;7.828;2022-09-27T11:46:05;2.17;;;1.30;;
7997;SDS011;4044;49.814;7.828;2022-09-27T11:49:00;3.07;;;1.60;;
7997;SDS011;4044;49.814;7.828;2022-09-27T11:52:12;2.53;;;1.60;;
7997;SDS011;4044;49.814;7.828;2022-09-27T12:00:34;13.60;;;2.50;;
7997;SDS011;4044;49.814;7.828;2022-09-27T12:08:36;2.77;;;2.20;;
7997;SDS011;4044;49.814;7.828;2022-09-27T12:14:02;3.17;;;2.80;;
7997;SDS011;4044;49.814;7.828;2022-09-27T12:16:31;2.93;;;1.90;;
7997;SDS011;4044;49.814;7.828;2022-09-27T12:18:58;4.27;;;2.30;;
7997;SDS011;4044;49.814;7.828;2022-09-27T12:21:25;2.80;;;2.10;;
7997;SDS011;4044;49.814;7.828;2022-09-27T12:23:54;3.90;;;2.40;;
7997;SDS011;4044;49.814;7.828;2022-09-27T12:26:24;2.90;;;2.60;;
7997;SDS011;4044;49.814;7.828;2022-09-27T12:29:01;2.37;;;2.07;;
7997;SDS011;4044;49.814;7.828;2022-09-27T12:31:43;1.40;;;1.40;;
7997;SDS011;4044;49.814;7.828;2022-09-27T12:34:18;2.10;;;1.40;;
7997;SDS011;4044;49.814;7.828;2022-09-27T12:36:55;1.50;;;1.40;;
7997;SDS011;4044;49.814;7.828;2022-09-27T12:39:28;1.20;;;1.03;;
7997;SDS011;4044;49.814;7.828;2022-09-27T12:42:08;1.10;;;1.00;;
7997;SDS011;4044;49.814;7.828;2022-09-27T12:44:51;1.25;;;1.10;;
7997;SDS011;4044;49.814;7.828;2022-09-27T12:47:30;2.78;;;1.10;;
7997;SDS011;4044;49.814;7.828;2022-09-27T12:50:57;0.90;;;0.90;;
7997;SDS011;4044;49.814;7.828;2022-09-27T12:53:20;1.77;;;1.20;;
7997;SDS011;4044;49.814;7.828;2022-09-27T12:58:38;2.95;;;1.20;;
7997;SDS011;4044;49.814;7.828;2022-09-27T13:07:10;0.95;;;0.90;;
7997;SDS011;4044;49.814;7.828;2022-09-27T13:12:40;0.82;;;0.82;;
7997;SDS011;4044;49.814;7.828;2022-09-27T13:15:13;0.80;;;0.80;;
7997;SDS011;4044;49.814;7.828;2022-09-27T13:17:48;1.10;;;1.02;;
7997;SDS011;4044;49.814;7.828;2022-09-27T13:22:55;0.88;;;0.85;;
7997;SDS011;4044;49.814;7.828;2022-09-27T13:31:01;1.42;;;1.33;;
7997;SDS011;4044;49.814;7.828;2022-09-27T13:33:31;2.58;;;1.40;;
7997;SDS011;4044;49.814;7.828;2022-09-27T13:41:27;3.90;;;2.00;;
7997;SDS011;4044;49.814;7.828;2022-09-27T13:44:16;3.40;;;1.80;;
7997;SDS011;4044;49.814;7.828;2022-09-27T13:47:33;3.43;;;1.80;;
7997;SDS011;4044;49.814;7.828;2022-09-27T13:49:50;3.87;;;2.00;;
7997;SDS011;4044;49.814;7.828;2022-09-27T13:52:29;1.97;;;1.73;;
7997;SDS011;4044;49.814;7.828;2022-09-27T13:55:05;2.17;;;1.93;;
7997;SDS011;4044;49.814;7.828;2022-09-27T13:57:53;2.20;;;2.00;;
7997;SDS011;4044;49.814;7.828;2022-09-27T14:03:33;9.33;;;2.40;;
7997;SDS011;4044;49.814;7.828;2022-09-27T14:05:48;13.23;;;2.60;;
7997;SDS011;4044;49.814;7.828;2022-09-27T14:08:25;7.40;;;2.30;;
7997;SDS011;4044;49.814;7.828;2022-09-27T14:10:55;3.30;;;2.13;;
7997;SDS011;4044;49.814;7.828;2022-09-27T14:13:23;3.53;;;2.20;;
7997;SDS011;4044;49.814;7.828;2022-09-27T14:15:51;2.47;;;2.20;;
7997;SDS011;4044;49.814;7.828;2022-09-27T14:18:18;1.80;;;1.70;;
7997;SDS011;4044;49.814;7.828;2022-09-27T14:20:45;1.77;;;1.33;;
7997;SDS011;4044;49.814;7.828;2022-09-27T14:23:23;7.00;;;1.60;;
7997;SDS011;4044;49.814;7.828;2022-09-27T14:25:51;2.37;;;1.27;;
7997;SDS011;4044;49.814;7.828;2022-09-27T14:28:22;2.23;;;1.23;;
7997;SDS011;4044;49.814;7.828;2022-09-27T14:33:35;1.30;;;1.20;;
7997;SDS011;4044;49.814;7.828;2022-09-27T14:36:01;2.10;;;1.20;;
7997;SDS011;4044;49.814;7.828;2022-09-27T14:38:49;1.40;;;1.30;;
7997;SDS011;4044;49.814;7.828;2022-09-27T14:41:15;1.97;;;1.40;;
7997;SDS011;4044;49.814;7.828;2022-09-27T14:43:41;1.27;;;1.03;;
7997;SDS011;4044;49.814;7.828;2022-09-27T14:46:22;1.43;;;1.33;;
7997;SDS011;4044;49.814;7.828;2022-09-27T14:48:53;2.33;;;1.37;;
7997;SDS011;4044;49.814;7.828;2022-09-27T14:51:20;1.30;;;1.20;;
7997;SDS011;4044;49.814;7.828;2022-09-27T14:53:54;1.30;;;0.80;;
7997;SDS011;4044;49.814;7.828;2022-09-27T14:56:26;0.67;;;0.67;;
7997;SDS011;4044;49.814;7.828;2022-09-27T14:59:19;1.25;;;0.80;;
7997;SDS011;4044;49.814;7.828;2022-09-27T15:01:58;0.50;;;0.50;;
7997;SDS011;4044;49.814;7.828;2022-09-27T15:04:26;0.50;;;0.50;;
7997;SDS011;4044;49.814;7.828;2022-09-27T15:06:54;0.40;;;0.40;;
7997;SDS011;4044;49.814;7.828;2022-09-27T15:09:20;0.50;;;0.40;;
7997;SDS011;4044;49.814;7.828;2022-09-27T15:11:48;0.70;;;0.65;;
7997;SDS011;4044;49.814;7.828;2022-09-27T15:14:20;0.52;;;0.52;;
7997;SDS011;4044;49.814;7.828;2022-09-27T15:16:47;0.75;;;0.43;;
7997;SDS011;4044;49.814;7.828;2022-09-27T15:21:46;0.60;;;0.60;;
7997;SDS011;4044;49.814;7.828;2022-09-27T15:27:14;0.93;;;0.70;;
7997;SDS011;4044;49.814;7.828;2022-09-27T15:29:46;0.60;;;0.60;;
7997;SDS011;4044;49.814;7.828;2022-09-27T15:32:18;1.25;;;1.00;;
7997;SDS011;4044;49.814;7.828;2022-09-27T15:34:49;1.27;;;0.80;;
7997;SDS011;4044;49.814;7.828;2022-09-27T15:37:33;1.27;;;1.17;;
7997;SDS011;4044;49.814;7.828;2022-09-27T15:42:56;1.00;;;1.00;;
7997;SDS011;4044;49.814;7.828;2022-09-27T15:45:27;1.20;;;1.00;;
7997;SDS011;4044;49.814;7.828;2022-09-27T15:47:53;1.00;;;1.00;;
7997;SDS011;4044;49.814;7.828;2022-09-27T15:50:30;0.90;;;0.90;;
7997;SDS011;4044;49.814;7.828;2022-09-27T15:52:57;1.27;;;0.95;;
7997;SDS011;4044;49.814;7.828;2022-09-27T15:55:23;1.75;;;1.30;;
7997;SDS011;4044;49.814;7.828;2022-09-27T15:57:54;1.17;;;1.17;;
7997;SDS011;4044;49.814;7.828;2022-09-27T16:00:26;1.58;;;1.33;;
7997;SDS011;4044;49.814;7.828;2022-09-27T16:02:51;1.35;;;1.25;;
7997;SDS011;4044;49.814;7.828;2022-09-27T16:05:18;1.30;;;1.23;;
7997;SDS011;4044;49.814;7.828;2022-09-27T16:07:44;1.53;;;1.33;;
7997;SDS011;4044;49.814;7.828;2022-09-27T16:10:12;1.33;;;1.23;;
7997;SDS011;4044;49.814;7.828;2022-09-27T16:12:40;1.20;;;0.90;;
7997;SDS011;4044;49.814;7.828;2022-09-27T16:15:09;0.93;;;0.90;;
7997;SDS011;4044;49.814;7.828;2022-09-27T16:17:35;2.53;;;1.00;;
7997;SDS011;4044;49.814;7.828;2022-09-27T16:20:02;0.97;;;0.93;;
7997;SDS011;4044;49.814;7.828;2022-09-27T16:22:28;3.23;;;1.00;;
7997;SDS011;4044;49.814;7.828;2022-09-27T16:24:54;1.23;;;1.13;;
7997;SDS011;4044;49.814;7.828;2022-09-27T16:27:23;1.00;;;0.90;;
7997;SDS011;4044;49.814;7.828;2022-09-27T16:29:52;1.50;;;1.20;;
7997;SDS011;4044;49.814;7.828;2022-09-27T16:32:18;1.07;;;1.07;;
7997;SDS011;4044;49.814;7.828;2022-09-27T16:34:43;1.23;;;1.10;;
7997;SDS011;4044;49.814;7.828;2022-09-27T16:37:09;1.10;;;1.03;;
7997;SDS011;4044;49.814;7.828;2022-09-27T16:39:35;1.50;;;1.20;;
7997;SDS011;4044;49.814;7.828;2022-09-27T16:42:00;1.30;;;1.20;;
7997;SDS011;4044;49.814;7.828;2022-09-27T16:44:29;1.47;;;1.37;;
7997;SDS011;4044;49.814;7.828;2022-09-27T16:46:58;2.43;;;1.70;;
7997;SDS011;4044;49.814;7.828;2022-09-27T16:49:23;1.50;;;1.40;;
7997;SDS011;4044;49.814;7.828;2022-09-27T16:52:07;2.20;;;1.20;;
7997;SDS011;4044;49.814;7.828;2022-09-27T16:54:33;1.73;;;1.30;;
7997;SDS011;4044;49.814;7.828;2022-09-27T16:56:59;2.87;;;1.30;;
7997;SDS011;4044;49.814;7.828;2022-09-27T16:59:25;1.50;;;1.40;;
7997;SDS011;4044;49.814;7.828;2022-09-27T17:01:50;2.17;;;1.50;;
7997;SDS011;4044;49.814;7.828;2022-09-27T17:04:16;1.60;;;1.50;;
7997;SDS011;4044;49.814;7.828;2022-09-27T17:06:42;1.90;;;1.60;;
7997;SDS011;4044;49.814;7.828;2022-09-27T17:09:07;3.07;;;1.53;;
7997;SDS011;4044;49.814;7.828;2022-09-27T17:11:33;3.80;;;1.80;;
7997;SDS011;4044;49.814;7.828;2022-09-27T17:13:59;2.17;;;1.40;;
7997;SDS011;4044;49.814;7.828;2022-09-27T17:16:24;6.73;;;1.60;;
7997;SDS011;4044;49.814;7.828;2022-09-27T17:18:50;2.83;;;2.27;;
7997;SDS011;4044;49.814;7.828;2022-09-27T17:21:16;2.90;;;1.50;;
7997;SDS011;4044;49.814;7.828;2022-09-27T17:23:41;1.67;;;1.57;;
7997;SDS011;4044;49.814;7.828;2022-09-27T17:26:15;2.10;;;1.70;;
7997;SDS011;4044;49.814;7.828;2022-09-27T17:28:42;2.13;;;1.73;;
7997;SDS011;4044;49.814;7.828;2022-09-27T17:31:08;4.70;;;1.90;;
7997;SDS011;4044;49.814;7.828;2022-09-27T17:33:40;1.80;;;1.70;;
7997;SDS011;4044;49.814;7.828;2022-09-27T17:36:09;2.83;;;2.00;;
7997;SDS011;4044;49.814;7.828;2022-09-27T17:38:38;2.70;;;2.10;;
7997;SDS011;4044;49.814;7.828;2022-09-27T17:41:07;3.47;;;2.07;;
7997;SDS011;4044;49.814;7.828;2022-09-27T17:43:37;3.90;;;2.40;;
7997;SDS011;4044;49.814;7.828;2022-09-27T17:46:10;3.50;;;3.07;;
7997;SDS011;4044;49.814;7.828;2022-09-27T17:48:36;4.60;;;4.13;;
7997;SDS011;4044;49.814;7.828;2022-09-27T17:51:20;5.27;;;4.53;;
7997;SDS011;4044;49.814;7.828;2022-09-27T17:53:46;6.20;;;4.00;;
7997;SDS011;4044;49.814;7.828;2022-09-27T17:56:12;3.80;;;3.40;;